sensor_id;sensor_type;location;lat;lon;timestamp;P1;durP1;ratioP1;P2;durP2;ratioP2
51146;SDS011;37207;53.060;18.726;2023-05-10T00:00:19;6.20;;;5.30;;
51146;SDS011;37207;53.060;18.726;2023-05-10T00:03:06;6.30;;;5.60;;
51146;SDS011;37207;53.060;18.726;2023-05-10T00:05:33;6.00;;;5.40;;
51146;SDS011;37207;53.060;18.726;2023-05-10T00:07:59;13.10;;;5.80;;
51146;SDS011;37207;53.060;18.726;2023-05-10T00:10:26;10.50;;;5.90;;
51146;SDS011;37207;53.060;18.726;2023-05-10T00:12:52;6.50;;;5.70;;
51146;SDS011;37207;53.060;18.726;2023-05-10T00:15:19;7.70;;;6.30;;
51146;SDS011;37207;53.060;18.726;2023-05-10T00:17:46;7.80;;;6.30;;
51146;SDS011;37207;53.060;18.726;2023-05-10T00:20:12;7.40;;;6.70;;
51146;SDS011;37207;53.060;18.726;2023-05-10T00:22:39;6.60;;;6.10;;
51146;SDS011;37207;53.060;18.726;2023-05-10T00:25:06;6.30;;;5.80;;
51146;SDS011;37207;53.060;18.726;2023-05-10T00:27:33;6.30;;;5.80;;
51146;SDS011;37207;53.060;18.726;2023-05-10T00:29:59;6.80;;;6.20;;
51146;SDS011;37207;53.060;18.726;2023-05-10T00:32:26;7.80;;;6.30;;
51146;SDS011;37207;53.060;18.726;2023-05-10T00:34:52;7.50;;;6.90;;
51146;SDS011;37207;53.060;18.726;2023-05-10T00:37:19;7.10;;;6.00;;
51146;SDS011;37207;53.060;18.726;2023-05-10T00:39:45;6.60;;;6.10;;
51146;SDS011;37207;53.060;18.726;2023-05-10T00:42:12;6.70;;;6.10;;
51146;SDS011;37207;53.060;18.726;2023-05-10T00:44:39;7.00;;;5.70;;
51146;SDS011;37207;53.060;18.726;2023-05-10T00:47:05;6.90;;;6.30;;
51146;SDS011;37207;53.060;18.726;2023-05-10T00:49:32;6.50;;;6.00;;
51146;SDS011;37207;53.060;18.726;2023-05-10T00:52:00;12.30;;;6.40;;
51146;SDS011;37207;53.060;18.726;2023-05-10T00:54:28;7.80;;;6.20;;
51146;SDS011;37207;53.060;18.726;2023-05-10T00:56:55;8.20;;;6.30;;
51146;SDS011;37207;53.060;18.726;2023-05-10T00:59:23;7.80;;;6.50;;
51146;SDS011;37207;53.060;18.726;2023-05-10T01:01:50;9.30;;;6.40;;
51146;SDS011;37207;53.060;18.726;2023-05-10T01:04:17;10.60;;;6.00;;
51146;SDS011;37207;53.060;18.726;2023-05-10T01:06:46;8.10;;;5.60;;
51146;SDS011;37207;53.060;18.726;2023-05-10T01:09:12;7.90;;;6.50;;
51146;SDS011;37207;53.060;18.726;2023-05-10T01:11:39;7.30;;;6.60;;
51146;SDS011;37207;53.060;18.726;2023-05-10T01:14:06;7.30;;;6.80;;
51146;SDS011;37207;53.060;18.726;2023-05-10T01:16:34;8.10;;;6.10;;
51146;SDS011;37207;53.060;18.726;2023-05-10T01:19:04;6.30;;;5.90;;
51146;SDS011;37207;53.060;18.726;2023-05-10T01:35:09;7.90;;;6.50;;
51146;SDS011;37207;53.060;18.726;2023-05-10T01:37:45;7.00;;;6.40;;
51146;SDS011;37207;53.060;18.726;2023-05-10T01:40:19;7.50;;;6.80;;
51146;SDS011;37207;53.060;18.726;2023-05-10T01:43:03;9.90;;;6.80;;
51146;SDS011;37207;53.060;18.726;2023-05-10T01:45:39;7.50;;;6.80;;
51146;SDS011;37207;53.060;18.726;2023-05-10T01:48:14;9.10;;;6.80;;
51146;SDS011;37207;53.060;18.726;2023-05-10T01:50:42;6.80;;;6.30;;
51146;SDS011;37207;53.060;18.726;2023-05-10T01:53:11;8.90;;;6.20;;
51146;SDS011;37207;53.060;18.726;2023-05-10T01:55:41;6.30;;;3.60;;
51146;SDS011;37207;53.060;18.726;2023-05-10T01:58:13;12.40;;;6.70;;
51146;SDS011;37207;53.060;18.726;2023-05-10T02:00:42;8.00;;;7.30;;
51146;SDS011;37207;53.060;18.726;2023-05-10T02:03:10;8.20;;;6.60;;
51146;SDS011;37207;53.060;18.726;2023-05-10T02:05:39;7.10;;;6.50;;
51146;SDS011;37207;53.060;18.726;2023-05-10T02:10:37;7.10;;;6.50;;
51146;SDS011;37207;53.060;18.726;2023-05-10T02:13:05;9.00;;;6.70;;
51146;SDS011;37207;53.060;18.726;2023-05-10T02:15:34;7.00;;;6.50;;
51146;SDS011;37207;53.060;18.726;2023-05-10T02:18:02;9.90;;;4.50;;
51146;SDS011;37207;53.060;18.726;2023-05-10T02:20:32;8.70;;;6.30;;
51146;SDS011;37207;53.060;18.726;2023-05-10T02:23:00;7.30;;;6.60;;
51146;SDS011;37207;53.060;18.726;2023-05-10T02:25:29;6.10;;;5.70;;
51146;SDS011;37207;53.060;18.726;2023-05-10T02:27:58;7.10;;;6.40;;
51146;SDS011;37207;53.060;18.726;2023-05-10T02:30:27;7.20;;;6.60;;
51146;SDS011;37207;53.060;18.726;2023-05-10T02:32:55;7.00;;;6.40;;
51146;SDS011;37207;53.060;18.726;2023-05-10T02:35:24;6.20;;;4.10;;
51146;SDS011;37207;53.060;18.726;2023-05-10T02:37:52;8.40;;;6.70;;
51146;SDS011;37207;53.060;18.726;2023-05-10T02:40:19;9.30;;;7.00;;
51146;SDS011;37207;53.060;18.726;2023-05-10T02:42:50;7.90;;;7.10;;
51146;SDS011;37207;53.060;18.726;2023-05-10T02:45:20;7.60;;;7.00;;
51146;SDS011;37207;53.060;18.726;2023-05-10T02:47:49;7.30;;;6.40;;
51146;SDS011;37207;53.060;18.726;2023-05-10T02:50:16;7.10;;;6.50;;
51146;SDS011;37207;53.060;18.726;2023-05-10T02:52:46;7.90;;;7.00;;
51146;SDS011;37207;53.060;18.726;2023-05-10T02:55:16;7.70;;;6.50;;
51146;SDS011;37207;53.060;18.726;2023-05-10T02:58:06;14.40;;;6.90;;
51146;SDS011;37207;53.060;18.726;2023-05-10T03:00:33;7.60;;;6.90;;
51146;SDS011;37207;53.060;18.726;2023-05-10T03:03:00;10.60;;;8.00;;
51146;SDS011;37207;53.060;18.726;2023-05-10T03:05:27;7.40;;;6.80;;
51146;SDS011;37207;53.060;18.726;2023-05-10T03:07:53;8.20;;;6.70;;
51146;SDS011;37207;53.060;18.726;2023-05-10T03:10:22;7.80;;;7.00;;
51146;SDS011;37207;53.060;18.726;2023-05-10T03:15:26;6.50;;;5.90;;
51146;SDS011;37207;53.060;18.726;2023-05-10T03:18:01;7.30;;;6.70;;
51146;SDS011;37207;53.060;18.726;2023-05-10T03:20:44;8.00;;;4.40;;
51146;SDS011;37207;53.060;18.726;2023-05-10T03:25:44;7.60;;;7.00;;
51146;SDS011;37207;53.060;18.726;2023-05-10T03:28:14;8.50;;;7.20;;
51146;SDS011;37207;53.060;18.726;2023-05-10T03:30:42;7.70;;;6.70;;
51146;SDS011;37207;53.060;18.726;2023-05-10T03:33:10;20.40;;;4.40;;
51146;SDS011;37207;53.060;18.726;2023-05-10T03:35:40;12.00;;;7.60;;
51146;SDS011;37207;53.060;18.726;2023-05-10T03:38:07;7.60;;;7.00;;
51146;SDS011;37207;53.060;18.726;2023-05-10T03:40:34;34.20;;;7.90;;
51146;SDS011;37207;53.060;18.726;2023-05-10T03:43:01;11.00;;;7.10;;
51146;SDS011;37207;53.060;18.726;2023-05-10T03:45:27;9.90;;;6.20;;
51146;SDS011;37207;53.060;18.726;2023-05-10T03:47:54;7.70;;;7.10;;
51146;SDS011;37207;53.060;18.726;2023-05-10T03:50:21;12.20;;;7.10;;
51146;SDS011;37207;53.060;18.726;2023-05-10T03:52:48;9.80;;;6.70;;
51146;SDS011;37207;53.060;18.726;2023-05-10T03:55:14;7.80;;;7.00;;
51146;SDS011;37207;53.060;18.726;2023-05-10T03:57:42;7.30;;;6.60;;
51146;SDS011;37207;53.060;18.726;2023-05-10T04:00:09;9.90;;;7.10;;
51146;SDS011;37207;53.060;18.726;2023-05-10T04:02:42;7.90;;;7.20;;
51146;SDS011;37207;53.060;18.726;2023-05-10T04:05:12;8.60;;;6.90;;
51146;SDS011;37207;53.060;18.726;2023-05-10T04:07:38;8.10;;;6.90;;
51146;SDS011;37207;53.060;18.726;2023-05-10T04:10:05;8.00;;;7.00;;
51146;SDS011;37207;53.060;18.726;2023-05-10T04:12:32;8.90;;;7.20;;
51146;SDS011;37207;53.060;18.726;2023-05-10T04:14:59;8.00;;;7.40;;
51146;SDS011;37207;53.060;18.726;2023-05-10T04:17:25;7.60;;;6.80;;
51146;SDS011;37207;53.060;18.726;2023-05-10T04:19:52;7.40;;;6.90;;
51146;SDS011;37207;53.060;18.726;2023-05-10T04:22:20;8.10;;;6.90;;
51146;SDS011;37207;53.060;18.726;2023-05-10T04:24:47;15.90;;;7.30;;
51146;SDS011;37207;53.060;18.726;2023-05-10T04:27:13;7.50;;;6.80;;
51146;SDS011;37207;53.060;18.726;2023-05-10T04:29:40;7.60;;;6.90;;
51146;SDS011;37207;53.060;18.726;2023-05-10T04:32:07;7.60;;;6.70;;
51146;SDS011;37207;53.060;18.726;2023-05-10T04:34:36;6.80;;;6.20;;
51146;SDS011;37207;53.060;18.726;2023-05-10T04:37:03;7.70;;;6.10;;
51146;SDS011;37207;53.060;18.726;2023-05-10T04:39:30;9.80;;;6.20;;
51146;SDS011;37207;53.060;18.726;2023-05-10T04:41:57;10.80;;;6.80;;
51146;SDS011;37207;53.060;18.726;2023-05-10T04:44:23;7.70;;;5.70;;
51146;SDS011;37207;53.060;18.726;2023-05-10T04:46:50;7.40;;;6.40;;
51146;SDS011;37207;53.060;18.726;2023-05-10T04:49:17;13.00;;;6.50;;
51146;SDS011;37207;53.060;18.726;2023-05-10T04:51:44;6.10;;;5.50;;
51146;SDS011;37207;53.060;18.726;2023-05-10T04:54:10;8.80;;;6.20;;
51146;SDS011;37207;53.060;18.726;2023-05-10T04:56:37;9.80;;;6.60;;
51146;SDS011;37207;53.060;18.726;2023-05-10T04:59:03;11.60;;;5.40;;
51146;SDS011;37207;53.060;18.726;2023-05-10T05:01:30;7.60;;;6.40;;
51146;SDS011;37207;53.060;18.726;2023-05-10T05:03:56;7.00;;;5.70;;
51146;SDS011;37207;53.060;18.726;2023-05-10T05:06:23;10.10;;;6.20;;
51146;SDS011;37207;53.060;18.726;2023-05-10T05:08:51;6.80;;;6.10;;
51146;SDS011;37207;53.060;18.726;2023-05-10T05:11:17;7.60;;;5.50;;
51146;SDS011;37207;53.060;18.726;2023-05-10T05:13:44;8.60;;;5.70;;
51146;SDS011;37207;53.060;18.726;2023-05-10T05:16:11;10.00;;;6.60;;
51146;SDS011;37207;53.060;18.726;2023-05-10T05:18:37;7.70;;;5.50;;
51146;SDS011;37207;53.060;18.726;2023-05-10T05:21:13;6.50;;;5.80;;
51146;SDS011;37207;53.060;18.726;2023-05-10T05:23:43;9.60;;;6.00;;
51146;SDS011;37207;53.060;18.726;2023-05-10T05:26:10;8.10;;;5.50;;
51146;SDS011;37207;53.060;18.726;2023-05-10T05:28:37;9.90;;;5.90;;
51146;SDS011;37207;53.060;18.726;2023-05-10T05:31:04;8.20;;;6.10;;
51146;SDS011;37207;53.060;18.726;2023-05-10T05:33:32;8.40;;;5.90;;
51146;SDS011;37207;53.060;18.726;2023-05-10T05:36:02;9.50;;;5.40;;
51146;SDS011;37207;53.060;18.726;2023-05-10T05:38:30;5.90;;;5.40;;
51146;SDS011;37207;53.060;18.726;2023-05-10T05:40:56;6.80;;;5.90;;
51146;SDS011;37207;53.060;18.726;2023-05-10T05:43:23;9.50;;;5.80;;
51146;SDS011;37207;53.060;18.726;2023-05-10T05:45:51;9.50;;;5.70;;
51146;SDS011;37207;53.060;18.726;2023-05-10T05:48:19;17.30;;;5.50;;
51146;SDS011;37207;53.060;18.726;2023-05-10T05:50:46;8.20;;;5.60;;
51146;SDS011;37207;53.060;18.726;2023-05-10T05:53:13;5.40;;;4.60;;
51146;SDS011;37207;53.060;18.726;2023-05-10T05:55:39;5.30;;;4.80;;
51146;SDS011;37207;53.060;18.726;2023-05-10T05:58:06;8.10;;;4.50;;
51146;SDS011;37207;53.060;18.726;2023-05-10T06:00:32;10.30;;;5.00;;
51146;SDS011;37207;53.060;18.726;2023-05-10T06:02:59;10.40;;;4.10;;
51146;SDS011;37207;53.060;18.726;2023-05-10T06:05:25;9.90;;;3.80;;
51146;SDS011;37207;53.060;18.726;2023-05-10T06:07:52;10.80;;;4.60;;
51146;SDS011;37207;53.060;18.726;2023-05-10T06:10:19;6.20;;;4.30;;
51146;SDS011;37207;53.060;18.726;2023-05-10T06:12:45;10.90;;;5.30;;
51146;SDS011;37207;53.060;18.726;2023-05-10T06:15:12;11.80;;;4.40;;
51146;SDS011;37207;53.060;18.726;2023-05-10T06:17:38;5.60;;;3.70;;
51146;SDS011;37207;53.060;18.726;2023-05-10T06:20:05;15.10;;;3.70;;
51146;SDS011;37207;53.060;18.726;2023-05-10T06:22:32;4.90;;;3.20;;
51146;SDS011;37207;53.060;18.726;2023-05-10T06:24:59;6.40;;;3.40;;
51146;SDS011;37207;53.060;18.726;2023-05-10T06:27:25;6.20;;;3.20;;
51146;SDS011;37207;53.060;18.726;2023-05-10T06:29:52;10.30;;;3.50;;
51146;SDS011;37207;53.060;18.726;2023-05-10T06:32:19;15.10;;;3.20;;
51146;SDS011;37207;53.060;18.726;2023-05-10T06:34:45;10.20;;;2.90;;
51146;SDS011;37207;53.060;18.726;2023-05-10T06:37:12;7.40;;;2.80;;
51146;SDS011;37207;53.060;18.726;2023-05-10T06:39:39;5.00;;;2.30;;
51146;SDS011;37207;53.060;18.726;2023-05-10T06:42:05;9.50;;;3.00;;
51146;SDS011;37207;53.060;18.726;2023-05-10T06:44:32;9.50;;;2.50;;
51146;SDS011;37207;53.060;18.726;2023-05-10T06:46:58;5.20;;;2.70;;
51146;SDS011;37207;53.060;18.726;2023-05-10T06:49:25;10.20;;;2.60;;
51146;SDS011;37207;53.060;18.726;2023-05-10T06:51:51;12.30;;;2.50;;
51146;SDS011;37207;53.060;18.726;2023-05-10T06:54:18;7.30;;;2.20;;
51146;SDS011;37207;53.060;18.726;2023-05-10T06:56:45;14.70;;;2.40;;
51146;SDS011;37207;53.060;18.726;2023-05-10T06:59:11;9.30;;;2.30;;
51146;SDS011;37207;53.060;18.726;2023-05-10T07:01:39;9.90;;;2.50;;
51146;SDS011;37207;53.060;18.726;2023-05-10T07:04:06;3.50;;;2.10;;
51146;SDS011;37207;53.060;18.726;2023-05-10T07:06:33;9.60;;;2.30;;
51146;SDS011;37207;53.060;18.726;2023-05-10T07:09:00;5.30;;;2.20;;
51146;SDS011;37207;53.060;18.726;2023-05-10T07:11:26;9.20;;;1.80;;
51146;SDS011;37207;53.060;18.726;2023-05-10T07:13:53;3.50;;;2.00;;
51146;SDS011;37207;53.060;18.726;2023-05-10T07:16:20;8.00;;;2.30;;
51146;SDS011;37207;53.060;18.726;2023-05-10T07:18:47;5.00;;;1.70;;
51146;SDS011;37207;53.060;18.726;2023-05-10T07:21:14;8.60;;;2.20;;
51146;SDS011;37207;53.060;18.726;2023-05-10T07:23:40;5.00;;;1.80;;
51146;SDS011;37207;53.060;18.726;2023-05-10T07:26:07;5.10;;;1.70;;
51146;SDS011;37207;53.060;18.726;2023-05-10T07:28:36;4.40;;;2.10;;
51146;SDS011;37207;53.060;18.726;2023-05-10T07:31:03;7.60;;;2.00;;
51146;SDS011;37207;53.060;18.726;2023-05-10T07:33:30;4.10;;;1.70;;
51146;SDS011;37207;53.060;18.726;2023-05-10T07:35:57;9.50;;;2.00;;
51146;SDS011;37207;53.060;18.726;2023-05-10T07:38:23;7.60;;;1.80;;
51146;SDS011;37207;53.060;18.726;2023-05-10T07:40:50;6.90;;;2.10;;
51146;SDS011;37207;53.060;18.726;2023-05-10T07:43:17;7.60;;;1.70;;
51146;SDS011;37207;53.060;18.726;2023-05-10T07:45:43;5.30;;;1.70;;
51146;SDS011;37207;53.060;18.726;2023-05-10T07:48:10;7.70;;;1.90;;
51146;SDS011;37207;53.060;18.726;2023-05-10T07:50:36;11.30;;;2.40;;
51146;SDS011;37207;53.060;18.726;2023-05-10T07:53:03;10.40;;;1.90;;
51146;SDS011;37207;53.060;18.726;2023-05-10T07:55:29;9.40;;;1.90;;
51146;SDS011;37207;53.060;18.726;2023-05-10T07:57:56;10.00;;;2.20;;
51146;SDS011;37207;53.060;18.726;2023-05-10T08:00:23;3.80;;;1.60;;
51146;SDS011;37207;53.060;18.726;2023-05-10T08:02:49;2.10;;;1.90;;
51146;SDS011;37207;53.060;18.726;2023-05-10T08:05:16;2.10;;;1.60;;
51146;SDS011;37207;53.060;18.726;2023-05-10T08:07:42;6.70;;;2.20;;
51146;SDS011;37207;53.060;18.726;2023-05-10T08:10:10;5.20;;;2.10;;
51146;SDS011;37207;53.060;18.726;2023-05-10T08:12:37;5.50;;;2.10;;
51146;SDS011;37207;53.060;18.726;2023-05-10T08:15:05;8.00;;;1.80;;
51146;SDS011;37207;53.060;18.726;2023-05-10T08:17:32;3.30;;;2.00;;
51146;SDS011;37207;53.060;18.726;2023-05-10T08:19:59;3.70;;;1.40;;
51146;SDS011;37207;53.060;18.726;2023-05-10T08:22:26;2.70;;;1.70;;
51146;SDS011;37207;53.060;18.726;2023-05-10T08:24:52;5.50;;;2.00;;
51146;SDS011;37207;53.060;18.726;2023-05-10T08:27:19;4.10;;;2.10;;
51146;SDS011;37207;53.060;18.726;2023-05-10T08:29:46;15.10;;;2.20;;
51146;SDS011;37207;53.060;18.726;2023-05-10T08:32:12;8.40;;;2.20;;
51146;SDS011;37207;53.060;18.726;2023-05-10T08:34:39;6.00;;;2.30;;
51146;SDS011;37207;53.060;18.726;2023-05-10T08:37:05;5.00;;;2.10;;
51146;SDS011;37207;53.060;18.726;2023-05-10T08:39:35;5.40;;;1.70;;
51146;SDS011;37207;53.060;18.726;2023-05-10T08:42:03;4.30;;;2.10;;
51146;SDS011;37207;53.060;18.726;2023-05-10T08:44:32;1.80;;;1.60;;
51146;SDS011;37207;53.060;18.726;2023-05-10T08:47:05;1.60;;;1.50;;
51146;SDS011;37207;53.060;18.726;2023-05-10T08:49:35;5.80;;;1.60;;
51146;SDS011;37207;53.060;18.726;2023-05-10T08:52:03;5.70;;;1.70;;
51146;SDS011;37207;53.060;18.726;2023-05-10T08:54:32;8.00;;;2.30;;
51146;SDS011;37207;53.060;18.726;2023-05-10T08:56:59;8.50;;;2.20;;
51146;SDS011;37207;53.060;18.726;2023-05-10T08:59:26;4.70;;;1.70;;
51146;SDS011;37207;53.060;18.726;2023-05-10T09:01:53;7.10;;;1.90;;
51146;SDS011;37207;53.060;18.726;2023-05-10T09:04:23;8.40;;;2.10;;
51146;SDS011;37207;53.060;18.726;2023-05-10T09:06:51;7.50;;;1.40;;
51146;SDS011;37207;53.060;18.726;2023-05-10T09:09:18;8.10;;;1.60;;
51146;SDS011;37207;53.060;18.726;2023-05-10T09:11:46;1.90;;;1.70;;
51146;SDS011;37207;53.060;18.726;2023-05-10T09:14:13;5.20;;;1.80;;
51146;SDS011;37207;53.060;18.726;2023-05-10T09:16:41;10.30;;;2.20;;
51146;SDS011;37207;53.060;18.726;2023-05-10T09:19:08;3.40;;;1.60;;
51146;SDS011;37207;53.060;18.726;2023-05-10T09:21:35;6.10;;;1.90;;
51146;SDS011;37207;53.060;18.726;2023-05-10T09:24:05;2.60;;;1.70;;
51146;SDS011;37207;53.060;18.726;2023-05-10T09:26:32;13.90;;;2.00;;
51146;SDS011;37207;53.060;18.726;2023-05-10T09:28:59;2.90;;;2.20;;
51146;SDS011;37207;53.060;18.726;2023-05-10T09:34:16;3.60;;;1.40;;
51146;SDS011;37207;53.060;18.726;2023-05-10T09:36:53;2.80;;;1.40;;
51146;SDS011;37207;53.060;18.726;2023-05-10T09:39:32;6.70;;;1.70;;
51146;SDS011;37207;53.060;18.726;2023-05-10T09:41:59;6.80;;;1.60;;
51146;SDS011;37207;53.060;18.726;2023-05-10T09:44:30;4.20;;;1.90;;
51146;SDS011;37207;53.060;18.726;2023-05-10T09:46:58;2.60;;;1.40;;
51146;SDS011;37207;53.060;18.726;2023-05-10T09:49:24;3.40;;;1.80;;
51146;SDS011;37207;53.060;18.726;2023-05-10T09:52:04;4.80;;;2.20;;
51146;SDS011;37207;53.060;18.726;2023-05-10T09:54:32;9.70;;;2.50;;
51146;SDS011;37207;53.060;18.726;2023-05-10T09:57:00;15.00;;;2.80;;
51146;SDS011;37207;53.060;18.726;2023-05-10T09:59:28;3.00;;;1.60;;
51146;SDS011;37207;53.060;18.726;2023-05-10T10:01:55;7.10;;;2.10;;
51146;SDS011;37207;53.060;18.726;2023-05-10T10:04:23;7.20;;;2.70;;
51146;SDS011;37207;53.060;18.726;2023-05-10T10:07:00;5.70;;;2.20;;
51146;SDS011;37207;53.060;18.726;2023-05-10T10:09:28;11.90;;;2.10;;
51146;SDS011;37207;53.060;18.726;2023-05-10T10:11:55;5.90;;;2.30;;
51146;SDS011;37207;53.060;18.726;2023-05-10T10:14:23;10.90;;;2.20;;
51146;SDS011;37207;53.060;18.726;2023-05-10T10:16:50;5.80;;;2.10;;
51146;SDS011;37207;53.060;18.726;2023-05-10T10:19:20;3.50;;;1.70;;
51146;SDS011;37207;53.060;18.726;2023-05-10T10:21:48;6.40;;;2.00;;
51146;SDS011;37207;53.060;18.726;2023-05-10T10:24:16;6.90;;;2.80;;
51146;SDS011;37207;53.060;18.726;2023-05-10T10:26:42;2.40;;;1.60;;
51146;SDS011;37207;53.060;18.726;2023-05-10T10:29:17;8.30;;;1.90;;
51146;SDS011;37207;53.060;18.726;2023-05-10T10:34:26;2.70;;;1.40;;
51146;SDS011;37207;53.060;18.726;2023-05-10T10:36:55;6.90;;;1.70;;
51146;SDS011;37207;53.060;18.726;2023-05-10T10:39:23;4.00;;;1.50;;
51146;SDS011;37207;53.060;18.726;2023-05-10T10:41:57;2.60;;;0.90;;
51146;SDS011;37207;53.060;18.726;2023-05-10T10:52:25;3.90;;;1.30;;
51146;SDS011;37207;53.060;18.726;2023-05-10T10:57:26;3.40;;;1.40;;
51146;SDS011;37207;53.060;18.726;2023-05-10T11:02:56;10.80;;;1.60;;
51146;SDS011;37207;53.060;18.726;2023-05-10T11:10:37;6.50;;;1.50;;
51146;SDS011;37207;53.060;18.726;2023-05-10T11:13:05;4.40;;;1.30;;
51146;SDS011;37207;53.060;18.726;2023-05-10T11:18:01;7.40;;;1.80;;
51146;SDS011;37207;53.060;18.726;2023-05-10T11:20:43;37.40;;;2.90;;
51146;SDS011;37207;53.060;18.726;2023-05-10T11:23:13;7.60;;;1.30;;
51146;SDS011;37207;53.060;18.726;2023-05-10T11:25:42;4.10;;;1.40;;
51146;SDS011;37207;53.060;18.726;2023-05-10T11:28:10;2.40;;;1.40;;
51146;SDS011;37207;53.060;18.726;2023-05-10T11:30:38;7.40;;;1.80;;
51146;SDS011;37207;53.060;18.726;2023-05-10T11:33:06;5.90;;;1.40;;
51146;SDS011;37207;53.060;18.726;2023-05-10T11:35:37;3.80;;;1.60;;
51146;SDS011;37207;53.060;18.726;2023-05-10T11:38:06;7.10;;;2.00;;
51146;SDS011;37207;53.060;18.726;2023-05-10T11:40:34;3.20;;;1.50;;
51146;SDS011;37207;53.060;18.726;2023-05-10T11:43:01;9.40;;;1.80;;
51146;SDS011;37207;53.060;18.726;2023-05-10T11:47:58;7.80;;;1.70;;
51146;SDS011;37207;53.060;18.726;2023-05-10T11:50:26;2.90;;;1.40;;
51146;SDS011;37207;53.060;18.726;2023-05-10T11:52:53;2.10;;;1.70;;
51146;SDS011;37207;53.060;18.726;2023-05-10T11:55:21;6.90;;;1.60;;
51146;SDS011;37207;53.060;18.726;2023-05-10T11:57:53;9.30;;;1.30;;
51146;SDS011;37207;53.060;18.726;2023-05-10T12:00:20;4.80;;;1.80;;
51146;SDS011;37207;53.060;18.726;2023-05-10T12:02:48;2.30;;;1.40;;
51146;SDS011;37207;53.060;18.726;2023-05-10T12:05:15;7.00;;;1.60;;
51146;SDS011;37207;53.060;18.726;2023-05-10T12:07:42;1.80;;;1.20;;
51146;SDS011;37207;53.060;18.726;2023-05-10T12:10:12;4.90;;;1.50;;
51146;SDS011;37207;53.060;18.726;2023-05-10T12:12:44;3.70;;;1.70;;
51146;SDS011;37207;53.060;18.726;2023-05-10T12:15:17;10.60;;;1.80;;
51146;SDS011;37207;53.060;18.726;2023-05-10T12:17:46;6.90;;;2.00;;
51146;SDS011;37207;53.060;18.726;2023-05-10T12:20:17;5.10;;;1.70;;
51146;SDS011;37207;53.060;18.726;2023-05-10T12:22:52;6.60;;;1.60;;
51146;SDS011;37207;53.060;18.726;2023-05-10T12:25:36;5.30;;;1.50;;
51146;SDS011;37207;53.060;18.726;2023-05-10T12:28:11;3.50;;;1.20;;
51146;SDS011;37207;53.060;18.726;2023-05-10T12:30:38;2.90;;;1.40;;
51146;SDS011;37207;53.060;18.726;2023-05-10T12:33:08;4.30;;;1.60;;
51146;SDS011;37207;53.060;18.726;2023-05-10T12:35:44;4.90;;;1.50;;
51146;SDS011;37207;53.060;18.726;2023-05-10T12:41:16;9.20;;;1.80;;
51146;SDS011;37207;53.060;18.726;2023-05-10T12:43:44;3.90;;;1.40;;
51146;SDS011;37207;53.060;18.726;2023-05-10T12:46:14;10.10;;;1.70;;
51146;SDS011;37207;53.060;18.726;2023-05-10T12:48:43;9.10;;;1.50;;
51146;SDS011;37207;53.060;18.726;2023-05-10T12:51:12;3.20;;;1.60;;
51146;SDS011;37207;53.060;18.726;2023-05-10T12:53:41;6.20;;;1.60;;
51146;SDS011;37207;53.060;18.726;2023-05-10T12:56:09;2.10;;;1.70;;
51146;SDS011;37207;53.060;18.726;2023-05-10T12:58:35;3.40;;;1.40;;
51146;SDS011;37207;53.060;18.726;2023-05-10T13:01:02;4.30;;;1.90;;
51146;SDS011;37207;53.060;18.726;2023-05-10T13:03:29;3.80;;;1.40;;
51146;SDS011;37207;53.060;18.726;2023-05-10T13:05:55;5.20;;;1.30;;
51146;SDS011;37207;53.060;18.726;2023-05-10T13:08:22;5.60;;;1.50;;
51146;SDS011;37207;53.060;18.726;2023-05-10T13:10:49;4.20;;;1.60;;
51146;SDS011;37207;53.060;18.726;2023-05-10T13:13:15;5.60;;;1.80;;
51146;SDS011;37207;53.060;18.726;2023-05-10T13:15:42;7.00;;;2.00;;
51146;SDS011;37207;53.060;18.726;2023-05-10T13:18:09;1.90;;;1.50;;
51146;SDS011;37207;53.060;18.726;2023-05-10T13:20:35;4.20;;;1.70;;
51146;SDS011;37207;53.060;18.726;2023-05-10T13:23:02;5.60;;;1.50;;
51146;SDS011;37207;53.060;18.726;2023-05-10T13:25:29;4.10;;;2.40;;
51146;SDS011;37207;53.060;18.726;2023-05-10T13:27:56;3.30;;;1.60;;
51146;SDS011;37207;53.060;18.726;2023-05-10T13:30:22;14.60;;;2.10;;
51146;SDS011;37207;53.060;18.726;2023-05-10T13:32:50;4.00;;;1.70;;
51146;SDS011;37207;53.060;18.726;2023-05-10T13:35:16;5.10;;;1.60;;
51146;SDS011;37207;53.060;18.726;2023-05-10T13:37:43;2.30;;;1.50;;
51146;SDS011;37207;53.060;18.726;2023-05-10T13:40:10;3.90;;;1.80;;
51146;SDS011;37207;53.060;18.726;2023-05-10T13:42:36;2.60;;;1.50;;
51146;SDS011;37207;53.060;18.726;2023-05-10T13:45:03;3.60;;;1.60;;
51146;SDS011;37207;53.060;18.726;2023-05-10T13:47:30;3.50;;;1.50;;
51146;SDS011;37207;53.060;18.726;2023-05-10T13:49:57;4.50;;;1.60;;
51146;SDS011;37207;53.060;18.726;2023-05-10T13:52:24;3.80;;;1.50;;
51146;SDS011;37207;53.060;18.726;2023-05-10T13:54:52;7.50;;;1.60;;
51146;SDS011;37207;53.060;18.726;2023-05-10T13:57:21;5.20;;;1.60;;
51146;SDS011;37207;53.060;18.726;2023-05-10T13:59:49;2.80;;;1.40;;
51146;SDS011;37207;53.060;18.726;2023-05-10T14:02:16;9.40;;;1.90;;
51146;SDS011;37207;53.060;18.726;2023-05-10T14:04:43;7.30;;;1.60;;
51146;SDS011;37207;53.060;18.726;2023-05-10T14:07:09;6.20;;;1.60;;
51146;SDS011;37207;53.060;18.726;2023-05-10T14:09:36;10.50;;;1.90;;
51146;SDS011;37207;53.060;18.726;2023-05-10T14:12:02;5.90;;;1.80;;
51146;SDS011;37207;53.060;18.726;2023-05-10T14:14:29;5.40;;;1.70;;
51146;SDS011;37207;53.060;18.726;2023-05-10T14:16:56;7.10;;;1.60;;
51146;SDS011;37207;53.060;18.726;2023-05-10T14:19:23;3.20;;;1.70;;
51146;SDS011;37207;53.060;18.726;2023-05-10T14:21:49;7.60;;;1.90;;
51146;SDS011;37207;53.060;18.726;2023-05-10T14:26:44;3.60;;;1.70;;
51146;SDS011;37207;53.060;18.726;2023-05-10T14:29:11;2.00;;;1.30;;
51146;SDS011;37207;53.060;18.726;2023-05-10T14:31:37;13.60;;;2.00;;
51146;SDS011;37207;53.060;18.726;2023-05-10T14:34:04;3.70;;;1.40;;
51146;SDS011;37207;53.060;18.726;2023-05-10T14:36:31;5.90;;;1.80;;
51146;SDS011;37207;53.060;18.726;2023-05-10T14:38:58;3.30;;;1.20;;
51146;SDS011;37207;53.060;18.726;2023-05-10T14:41:25;4.70;;;1.80;;
51146;SDS011;37207;53.060;18.726;2023-05-10T14:43:51;4.80;;;1.30;;
51146;SDS011;37207;53.060;18.726;2023-05-10T14:46:18;5.30;;;1.60;;
51146;SDS011;37207;53.060;18.726;2023-05-10T14:48:44;9.50;;;1.20;;
51146;SDS011;37207;53.060;18.726;2023-05-10T14:51:11;2.40;;;1.90;;
51146;SDS011;37207;53.060;18.726;2023-05-10T14:53:38;4.60;;;1.70;;
51146;SDS011;37207;53.060;18.726;2023-05-10T14:56:04;2.80;;;1.30;;
51146;SDS011;37207;53.060;18.726;2023-05-10T14:58:31;6.20;;;1.60;;
51146;SDS011;37207;53.060;18.726;2023-05-10T15:00:58;5.70;;;1.90;;
51146;SDS011;37207;53.060;18.726;2023-05-10T15:03:24;7.50;;;1.80;;
51146;SDS011;37207;53.060;18.726;2023-05-10T15:05:51;5.50;;;2.00;;
51146;SDS011;37207;53.060;18.726;2023-05-10T15:08:19;9.60;;;1.90;;
51146;SDS011;37207;53.060;18.726;2023-05-10T15:10:45;4.10;;;1.60;;
51146;SDS011;37207;53.060;18.726;2023-05-10T15:13:12;6.40;;;1.50;;
51146;SDS011;37207;53.060;18.726;2023-05-10T15:15:39;8.70;;;1.50;;
51146;SDS011;37207;53.060;18.726;2023-05-10T15:18:08;7.90;;;1.90;;
51146;SDS011;37207;53.060;18.726;2023-05-10T15:20:36;5.60;;;1.90;;
51146;SDS011;37207;53.060;18.726;2023-05-10T15:23:03;3.20;;;1.70;;
51146;SDS011;37207;53.060;18.726;2023-05-10T15:25:30;6.90;;;1.70;;
51146;SDS011;37207;53.060;18.726;2023-05-10T15:27:56;7.00;;;1.90;;
51146;SDS011;37207;53.060;18.726;2023-05-10T15:30:23;10.00;;;1.50;;
51146;SDS011;37207;53.060;18.726;2023-05-10T15:32:49;6.10;;;1.60;;